Flugplatz Nardt

Für EDAT sind keine METAR/TAF Berichte vorhanden.
Es werden die Flugwettermeldungen vom Flugplatz Dresden in 46 km Entfernung angezeigt.

Bericht für EDDC

vom 23.08. um 12:50 UTC

variable Windrichtung mit 8 kt

Sichtweite 10 km oder mehr

gute Sicht, keine Wolken < 5000 ft, keine CB, keine Wettererscheinungen (CAVOK)

Temperatur 26.0°C

Taupunkt 10.0°C

Luftfeuchtigkeit 37%

Luftdruck 1026 hPa

keine wesentliche Wetteränderung innerhalb den nächsten 2 Stunden zu erwarten

EDDC 231250Z VRB08KT CAVOK 26/10 Q1026 NOSIG

Prognose für EDDC

vom 23.08. um 00:00 UTC

Zwischen 00:00 UTC und 00:00 UTC

Wind 5 kt aus 80°

Sichtweite 10 km oder mehr

gering bewölkt in 4500 ft


Zwischen 00:00 und 00:00 UTC übergehend zu

variable Windrichtung mit 3 kt

Sichtweite 10 km oder mehr

gering bewölkt in 4500 ft


Am 24.08. zwischen 00:00 und 00:00 UTC übergehend zu

Wind 5 kt aus 50°

Sichtweite 10 km oder mehr

gering bewölkt in 4500 ft

TAF EDDC 231100Z 2312/2412 08005KT 9999 FEW045 BECMG 2317/2320 VRB03KT BECMG 2407/2410 05005KT
Impressum